createdAt,value
2019-05-25T00:01:01.560Z,517
2019-05-25T00:02:08.772Z,517
2019-05-25T00:03:15.974Z,517
2019-05-25T00:04:23.179Z,517
2019-05-25T00:05:30.396Z,516
2019-05-25T00:06:37.598Z,516
2019-05-25T00:07:44.537Z,517
2019-05-25T00:08:51.761Z,517
2019-05-25T00:09:58.968Z,516
2019-05-25T00:11:06.168Z,516
2019-05-25T00:12:13.393Z,517
2019-05-25T00:13:20.615Z,517
2019-05-25T00:14:27.818Z,517
2019-05-25T00:15:35.032Z,518
2019-05-25T00:16:41.695Z,518
2019-05-25T00:17:48.912Z,518
2019-05-25T00:18:56.106Z,518
2019-05-25T00:20:03.326Z,518
2019-05-25T00:21:14.391Z,518
2019-05-25T00:22:21.598Z,518
2019-05-25T00:23:28.795Z,518
2019-05-25T00:24:35.997Z,518
2019-05-25T00:25:43.204Z,517
2019-05-25T00:26:50.404Z,517
2019-05-25T00:27:57.610Z,517
2019-05-25T00:29:04.817Z,518
2019-05-25T00:30:12.032Z,517
2019-05-25T00:31:19.276Z,518
2019-05-25T00:32:26.234Z,518
2019-05-25T00:33:33.544Z,518
2019-05-25T00:34:40.751Z,518
2019-05-25T00:35:47.962Z,518
2019-05-25T00:36:55.191Z,518
2019-05-25T00:38:02.406Z,518
2019-05-25T00:39:09.607Z,518
2019-05-25T00:40:16.813Z,519
2019-05-25T00:41:24.021Z,519
2019-05-25T00:42:31.227Z,519
2019-05-25T00:43:38.430Z,518
2019-05-25T00:44:45.125Z,518
2019-05-25T00:45:52.328Z,519
2019-05-25T00:46:59.556Z,520
2019-05-25T00:48:06.761Z,520
2019-05-25T00:49:13.962Z,520
2019-05-25T00:50:21.172Z,519
2019-05-25T00:51:28.108Z,520
2019-05-25T00:52:35.315Z,520
2019-05-25T00:53:42.560Z,519
2019-05-25T00:54:49.765Z,519
2019-05-25T00:55:56.965Z,519
2019-05-25T00:57:03.890Z,518
2019-05-25T00:58:11.099Z,518
2019-05-25T00:59:18.026Z,518
2019-05-25T01:00:25.242Z,518
2019-05-25T01:01:32.450Z,518
2019-05-25T01:02:39.687Z,517
2019-05-25T01:03:47.009Z,517
2019-05-25T01:04:54.218Z,518
2019-05-25T01:06:01.424Z,517
2019-05-25T01:07:08.631Z,517
2019-05-25T01:08:15.848Z,517
2019-05-25T01:09:23.058Z,517
2019-05-25T01:10:29.992Z,517
2019-05-25T01:11:37.194Z,517
2019-05-25T01:12:44.412Z,517
2019-05-25T01:13:51.402Z,517
2019-05-25T01:14:58.606Z,516
2019-05-25T01:16:05.540Z,517
2019-05-25T01:17:12.759Z,517
2019-05-25T01:18:20.045Z,517
2019-05-25T01:19:27.251Z,517
2019-05-25T01:20:34.180Z,517
2019-05-25T01:21:41.383Z,517
2019-05-25T01:22:48.312Z,517
2019-05-25T01:23:55.519Z,517
2019-05-25T01:25:02.794Z,518
2019-05-25T01:27:16.957Z,519
2019-05-25T01:28:24.163Z,518
2019-05-25T01:29:31.373Z,518
2019-05-25T01:30:38.578Z,517
2019-05-25T01:31:45.509Z,518
2019-05-25T01:32:52.718Z,518
2019-05-25T01:33:59.917Z,518
2019-05-25T01:35:06.848Z,518
2019-05-25T01:36:13.777Z,518
2019-05-25T01:37:20.987Z,517
2019-05-25T01:38:28.188Z,518
2019-05-25T01:39:35.392Z,517
2019-05-25T01:40:42.617Z,518
2019-05-25T01:41:49.545Z,518
2019-05-25T01:42:56.751Z,518
2019-05-25T01:44:03.960Z,518
2019-05-25T01:45:11.160Z,519
2019-05-25T01:46:17.826Z,519
2019-05-25T01:47:25.024Z,518
2019-05-25T01:48:32.228Z,518
2019-05-25T01:49:39.167Z,518
2019-05-25T01:50:46.368Z,519
2019-05-25T01:51:53.297Z,518
2019-05-25T01:53:00.232Z,518
2019-05-25T01:54:07.437Z,518
2019-05-25T01:55:14.367Z,518
2019-05-25T01:56:21.356Z,518
2019-05-25T01:57:28.557Z,517
2019-05-25T01:58:35.488Z,517
2019-05-25T01:59:42.710Z,517
2019-05-25T02:00:49.635Z,518
2019-05-25T02:01:56.835Z,517
2019-05-25T02:03:04.098Z,517
2019-05-25T02:04:11.322Z,517
2019-05-25T02:05:18.524Z,516
2019-05-25T02:06:25.737Z,516
2019-05-25T02:07:32.666Z,516
2019-05-25T02:08:39.886Z,516
2019-05-25T02:09:47.086Z,517
2019-05-25T02:10:54.010Z,517
2019-05-25T02:12:01.215Z,518
2019-05-25T02:13:08.153Z,518
2019-05-25T02:14:15.347Z,519
2019-05-25T02:15:22.280Z,519
2019-05-25T02:16:29.212Z,518
2019-05-25T02:17:36.420Z,518
2019-05-25T02:18:46.761Z,518
2019-05-25T02:19:53.982Z,518
2019-05-25T02:21:01.179Z,518
2019-05-25T02:22:08.385Z,518
2019-05-25T02:23:15.591Z,517
2019-05-25T02:24:22.522Z,517
2019-05-25T02:25:29.456Z,516
2019-05-25T02:26:36.660Z,516
2019-05-25T02:27:43.901Z,517
2019-05-25T02:28:51.122Z,517
2019-05-25T02:29:58.357Z,517
2019-05-25T02:31:05.583Z,517
2019-05-25T02:32:12.548Z,517
2019-05-25T02:33:19.676Z,517
2019-05-25T02:34:26.884Z,516
2019-05-25T02:35:34.089Z,517
2019-05-25T02:36:41.024Z,516
2019-05-25T02:37:47.956Z,516
2019-05-25T02:38:54.892Z,516
2019-05-25T02:40:02.093Z,516
2019-05-25T02:41:09.296Z,516
2019-05-25T02:42:15.949Z,515
2019-05-25T02:43:23.157Z,515
2019-05-25T02:44:30.360Z,515
2019-05-25T02:45:37.558Z,515
2019-05-25T02:46:44.772Z,515
2019-05-25T02:47:51.986Z,515
2019-05-25T02:48:59.183Z,515
2019-05-25T02:50:06.387Z,515
2019-05-25T02:51:13.051Z,515
2019-05-25T02:52:20.252Z,515
2019-05-25T02:53:27.460Z,515
2019-05-25T02:54:34.662Z,515
2019-05-25T02:55:41.869Z,515
2019-05-25T02:56:49.075Z,515
2019-05-25T02:57:56.281Z,514
2019-05-25T02:59:03.480Z,515
2019-05-25T03:00:10.426Z,515
2019-05-25T03:01:17.088Z,515
2019-05-25T03:02:24.295Z,515
2019-05-25T03:03:31.500Z,515
2019-05-25T03:04:38.717Z,516
2019-05-25T03:05:45.661Z,516
2019-05-25T03:06:52.610Z,517
2019-05-25T03:07:59.862Z,516
2019-05-25T03:09:07.319Z,515
2019-05-25T03:10:14.523Z,515
2019-05-25T03:11:21.750Z,515
2019-05-25T03:12:28.965Z,516
2019-05-25T03:13:35.620Z,515
2019-05-25T03:14:42.827Z,515
2019-05-25T03:15:49.757Z,515
2019-05-25T03:16:56.960Z,515
2019-05-25T03:18:04.528Z,514
2019-05-25T03:19:11.466Z,514
2019-05-25T03:20:18.673Z,514
2019-05-25T03:21:25.880Z,514
2019-05-25T03:22:33.082Z,515
2019-05-25T03:23:40.011Z,514
2019-05-25T03:24:47.217Z,515
2019-05-25T03:25:54.429Z,514
2019-05-25T03:27:01.666Z,514
2019-05-25T03:28:08.598Z,514
2019-05-25T03:29:15.834Z,514
2019-05-25T03:30:23.041Z,514
2019-05-25T03:31:30.242Z,514
2019-05-25T22:00:06.803Z,514
2019-05-25T22:01:14.006Z,507
2019-05-25T22:02:21.206Z,504
2019-05-25T22:03:28.137Z,503
2019-05-25T22:04:34.793Z,502
2019-05-25T22:05:42.000Z,501
2019-05-25T22:06:49.205Z,501
2019-05-25T22:07:56.416Z,500
2019-05-25T22:09:03.621Z,500
2019-05-25T22:10:10.822Z,499
2019-05-25T22:11:17.826Z,499
2019-05-25T22:12:25.026Z,499
2019-05-25T22:13:32.232Z,498
2019-05-25T22:14:39.165Z,498
2019-05-25T22:15:46.365Z,498
2019-05-25T22:16:53.297Z,498
2019-05-25T22:18:00.504Z,497
2019-05-25T22:19:07.715Z,497
2019-05-25T22:20:14.652Z,497
2019-05-25T22:21:21.994Z,497
2019-05-25T22:22:28.926Z,496
2019-05-25T22:23:36.127Z,495
2019-05-25T22:24:43.074Z,496
2019-05-25T22:25:50.276Z,495
2019-05-25T22:26:57.486Z,494
2019-05-25T22:28:04.696Z,494
2019-05-25T22:29:11.900Z,494
2019-05-25T22:30:19.112Z,494
2019-05-25T22:31:26.305Z,493
2019-05-25T22:32:33.253Z,492
2019-05-25T22:33:40.680Z,491
2019-05-25T22:34:47.927Z,491
2019-05-25T22:35:55.380Z,490
2019-05-25T22:37:02.803Z,489
2019-05-25T22:38:09.742Z,489
2019-05-25T22:39:16.947Z,489
2019-05-25T22:40:24.156Z,489
2019-05-25T22:41:31.377Z,488
2019-05-25T22:42:38.576Z,488
2019-05-25T22:43:45.778Z,487
2019-05-25T22:44:52.714Z,487
2019-05-25T22:45:59.916Z,487
2019-05-25T22:47:07.124Z,486
2019-05-25T22:48:14.322Z,485
2019-05-25T22:49:21.529Z,485
2019-05-25T22:50:28.460Z,484
2019-05-25T22:51:35.667Z,483
2019-05-25T22:52:42.873Z,481
2019-05-25T22:53:50.076Z,481
2019-05-25T22:54:57.280Z,481
2019-05-25T22:56:04.484Z,480
2019-05-25T22:57:11.686Z,480
2019-05-25T22:58:18.900Z,479
2019-05-25T22:59:26.102Z,479
2019-05-25T23:00:33.350Z,478
2019-05-25T23:01:40.584Z,478
2019-05-25T23:02:47.791Z,477
2019-05-25T23:03:54.994Z,477
2019-05-25T23:05:01.931Z,476
2019-05-25T23:06:08.863Z,475
2019-05-25T23:07:16.070Z,474
2019-05-25T23:08:23.273Z,474
2019-05-25T23:09:30.481Z,474
2019-05-25T23:10:37.410Z,472
2019-05-25T23:11:44.616Z,472
2019-05-25T23:12:51.543Z,472
2019-05-25T23:13:58.750Z,470
2019-05-25T23:15:05.683Z,469
2019-05-25T23:16:12.887Z,468
2019-05-25T23:17:20.106Z,468
2019-05-25T23:18:27.309Z,468
2019-05-25T23:19:34.247Z,466
2019-05-25T23:20:41.448Z,466
2019-05-25T23:21:48.658Z,465
2019-05-25T23:22:55.591Z,465
2019-05-25T23:24:02.520Z,464
2019-05-25T23:25:09.722Z,463
2019-05-25T23:26:16.934Z,463
2019-05-25T23:27:24.137Z,463
2019-05-25T23:28:31.340Z,462
2019-05-25T23:29:38.543Z,461
2019-05-25T23:30:45.747Z,461
2019-05-25T23:31:52.965Z,461
2019-05-25T23:32:59.916Z,460
2019-05-25T23:34:07.124Z,460
2019-05-25T23:35:14.327Z,460
2019-05-25T23:36:21.259Z,459
2019-05-25T23:37:28.189Z,458
2019-05-25T23:38:35.397Z,457
2019-05-25T23:39:42.331Z,457
2019-05-25T23:40:49.534Z,456
2019-05-25T23:41:56.190Z,456
2019-05-25T23:43:03.395Z,455
2019-05-25T23:44:10.600Z,455
2019-05-25T23:45:17.801Z,453
2019-05-25T23:46:25.002Z,454
2019-05-25T23:47:31.934Z,453
2019-05-25T23:48:38.866Z,452
2019-05-25T23:49:46.069Z,452
2019-05-25T23:50:53.293Z,452
2019-05-25T23:52:00.503Z,452
2019-05-25T23:53:07.719Z,451
2019-05-25T23:54:14.920Z,450
2019-05-25T23:55:22.123Z,451
2019-05-25T23:56:29.374Z,451
2019-05-25T23:57:36.580Z,450
2019-05-25T23:58:43.778Z,450
2019-05-25T23:59:51.031Z,450
